Time;durP1;ratioP1;P1;durP2;ratioP2;P2;SDS_P1;SDS_P2;PMS_P1;PMS_P2;Temp;Humidity;BMP_temperature;BMP_pressure;BME280_temperature;BME280_humidity;BME280_pressure;Samples;Min_cycle;Max_cycle;Signal;HPM_P1;HPM_P2
2023/04/05 00:00:31;;;;;;;33.70;12.63;;;-1.30;99.90;;;;;;5064424;28;20028;-63
2023/04/05 00:03:00;;;;;;;30.80;12.95;;;-1.30;99.90;;;;;;5053635;28;20032;-64
2023/04/05 00:05:33;;;;;;;34.53;13.77;;;-1.40;99.90;;;;;;5067257;28;20020;-62
2023/04/05 00:08:00;;;;;;;35.25;12.50;;;-1.50;99.90;;;;;;5066476;28;20033;-64
2023/04/05 00:10:27;;;;;;;33.47;13.43;;;-1.50;99.90;;;;;;5066182;28;20036;-62
2023/04/05 00:12:52;;;;;;;36.17;13.30;;;-1.50;99.90;;;;;;5070526;28;20041;-65
2023/04/05 00:15:18;;;;;;;30.95;13.65;;;-1.60;99.90;;;;;;5070787;28;20040;-63
2023/04/05 00:17:44;;;;;;;33.17;13.93;;;-1.50;99.90;;;;;;5069788;28;20388;-68
2023/04/05 00:20:10;;;;;;;34.70;13.52;;;-1.50;99.90;;;;;;5069931;28;20086;-63
2023/04/05 00:22:37;;;;;;;31.00;12.95;;;-1.50;99.90;;;;;;5064754;28;20086;-62
2023/04/05 00:25:06;;;;;;;40.47;13.80;;;-1.50;99.90;;;;;;5064579;28;20063;-65
2023/04/05 00:27:31;;;;;;;32.55;12.73;;;-1.50;99.90;;;;;;5065306;28;20029;-64
2023/04/05 00:29:57;;;;;;;28.40;12.68;;;-1.60;99.90;;;;;;5051785;28;20385;-67
2023/04/05 00:32:23;;;;;;;37.30;12.93;;;-1.70;99.90;;;;;;5057469;28;20052;-63
2023/04/05 00:34:49;;;;;;;31.60;11.55;;;-1.70;99.90;;;;;;5069375;28;20457;-65
2023/04/05 00:37:14;;;;;;;26.13;11.07;;;-1.60;99.90;;;;;;5070900;28;20104;-62
2023/04/05 00:39:40;;;;;;;31.52;12.38;;;-1.60;99.90;;;;;;5066947;28;20427;-64
2023/04/05 00:42:07;;;;;;;31.55;12.05;;;-1.60;99.90;;;;;;5056567;28;20025;-62
2023/04/05 00:44:33;;;;;;;33.65;12.77;;;-1.60;99.90;;;;;;5068626;28;20027;-66
2023/04/05 00:47:06;;;;;;;29.00;12.00;;;-1.70;99.90;;;;;;5067874;28;20055;-63
2023/04/05 00:49:33;;;;;;;39.33;15.50;;;-1.60;99.90;;;;;;5070623;28;20032;-64
2023/04/05 00:52:00;;;;;;;40.35;14.68;;;-1.60;99.90;;;;;;5066856;28;20202;-63
2023/04/05 00:54:29;;;;;;;45.75;16.25;;;-1.70;99.90;;;;;;5069898;28;20119;-62
2023/04/05 00:56:56;;;;;;;23.80;9.63;;;-1.70;99.90;;;;;;5069427;28;20082;-63
2023/04/05 00:59:22;;;;;;;33.78;12.10;;;-1.80;99.90;;;;;;5068174;28;20044;-64
2023/04/05 01:01:59;;;;;;;25.92;11.40;;;-1.70;99.90;;;;;;5067620;28;20388;-62
2023/04/05 01:04:29;;;;;;;27.63;10.88;;;-1.70;99.90;;;;;;5071158;28;20033;-63
2023/04/05 01:07:19;;;;;;;27.65;10.10;;;-1.70;99.90;;;;;;5066277;28;20029;-62
2023/04/05 01:09:55;;;;;;;28.85;11.15;;;-1.70;99.90;;;;;;5066258;28;20032;-69
2023/04/05 01:12:24;;;;;;;34.90;12.85;;;-1.70;99.90;;;;;;5069490;28;20040;-63
2023/04/05 01:14:52;;;;;;;38.60;13.18;;;-1.70;99.90;;;;;;5068563;28;20058;-63
2023/04/05 01:17:23;;;;;;;27.80;11.95;;;-1.70;99.90;;;;;;5068065;28;20035;-63
2023/04/05 01:19:52;;;;;;;50.78;16.92;;;-1.80;99.90;;;;;;5068489;28;20551;-64
2023/04/05 01:22:58;;;;;;;38.75;15.85;;;-1.80;99.90;;;;;;5058237;28;20028;-62
2023/04/05 01:25:43;;;;;;;47.40;15.05;;;-1.80;99.90;;;;;;5069508;28;20041;-63
2023/04/05 01:28:30;;;;;;;61.60;19.20;;;-2.00;99.90;;;;;;5068233;28;20039;-63
2023/04/05 01:31:17;;;;;;;60.42;20.48;;;-2.00;99.90;;;;;;5068148;28;20110;-63
2023/04/05 01:33:51;;;;;;;56.40;18.80;;;-2.10;99.90;;;;;;5070784;28;20047;-64
2023/04/05 01:36:26;;;;;;;63.42;18.77;;;-2.00;99.90;;;;;;5068084;28;20078;-64
2023/04/05 01:38:53;;;;;;;52.10;17.00;;;-2.10;99.90;;;;;;5058554;28;20043;-64
2023/04/05 01:41:20;;;;;;;48.58;16.73;;;-2.10;99.90;;;;;;5069627;28;20040;-63
2023/04/05 01:43:46;;;;;;;49.70;16.70;;;-2.10;99.90;;;;;;5069363;28;20427;-68
2023/04/05 01:46:12;;;;;;;49.45;16.17;;;-2.20;99.90;;;;;;5048482;28;20036;-64
2023/04/05 01:48:37;;;;;;;49.58;16.20;;;-2.10;99.90;;;;;;5056800;28;20353;-63
2023/04/05 01:51:03;;;;;;;43.20;14.75;;;-2.10;99.90;;;;;;5068489;28;20067;-64
2023/04/05 01:53:29;;;;;;;50.83;15.60;;;-2.10;99.90;;;;;;5037259;28;20102;-65
2023/04/05 01:56:00;;;;;;;47.28;15.10;;;-2.20;99.90;;;;;;5068057;28;20102;-63
2023/04/05 01:58:26;;;;;;;45.20;16.05;;;-2.30;99.90;;;;;;5069607;28;20490;-62
2023/04/05 02:00:55;;;;;;;44.78;15.32;;;-2.30;99.90;;;;;;5063288;28;20040;-65
2023/04/05 02:03:22;;;;;;;43.35;15.55;;;-2.40;99.90;;;;;;5063874;28;20097;-63
2023/04/05 02:05:48;;;;;;;49.85;16.00;;;-2.40;99.90;;;;;;5056757;28;20036;-69
2023/04/05 02:08:14;;;;;;;45.58;15.50;;;-2.40;99.90;;;;;;5065010;28;20047;-63
2023/04/05 02:10:40;;;;;;;46.88;14.38;;;-2.50;99.90;;;;;;5068432;28;20033;-63
2023/04/05 02:13:06;;;;;;;31.23;12.82;;;-2.50;99.90;;;;;;5069417;28;20044;-63
2023/04/05 02:15:32;;;;;;;36.53;12.77;;;-2.50;99.90;;;;;;5067891;28;20040;-65
2023/04/05 02:18:00;;;;;;;42.45;14.43;;;-2.40;99.90;;;;;;5069159;28;20039;-64
2023/04/05 02:20:27;;;;;;;39.22;13.60;;;-2.40;99.90;;;;;;5067002;28;20017;-65
2023/04/05 02:22:53;;;;;;;36.72;14.10;;;-2.40;99.90;;;;;;5066867;28;20029;-63
2023/04/05 02:25:19;;;;;;;40.50;13.65;;;-2.50;99.90;;;;;;5068654;28;20036;-64
2023/04/05 02:27:45;;;;;;;41.80;14.43;;;-2.50;99.90;;;;;;5068926;28;20089;-62
2023/04/05 02:30:12;;;;;;;37.60;14.68;;;-2.60;99.90;;;;;;5058923;28;20036;-63
2023/04/05 02:32:42;;;;;;;41.90;14.82;;;-2.60;99.90;;;;;;5064108;28;20477;-65
2023/04/05 02:35:08;;;;;;;46.25;17.25;;;-2.60;99.90;;;;;;5067200;28;20099;-64
2023/04/05 02:37:34;;;;;;;61.65;18.15;;;-2.70;99.90;;;;;;5068158;28;20121;-65
2023/04/05 02:40:00;;;;;;;46.50;15.65;;;-2.70;99.90;;;;;;5066580;28;20082;-63
2023/04/05 02:42:26;;;;;;;38.67;13.80;;;-2.70;99.90;;;;;;5067271;28;20035;-63
2023/04/05 02:44:52;;;;;;;37.70;13.18;;;-2.70;99.90;;;;;;5065824;28;20029;-68
2023/04/05 02:47:21;;;;;;;37.22;13.65;;;-2.60;99.90;;;;;;5068097;28;20028;-63
2023/04/05 02:49:49;;;;;;;34.13;13.25;;;-2.60;99.90;;;;;;5066510;28;20020;-63
2023/04/05 02:52:15;;;;;;;41.13;14.20;;;-2.60;99.90;;;;;;5064398;28;20422;-63
2023/04/05 02:54:41;;;;;;;30.20;12.07;;;-2.60;99.90;;;;;;5064509;28;20028;-63
2023/04/05 02:57:10;;;;;;;31.63;12.13;;;-2.60;99.90;;;;;;5066382;28;20036;-63
2023/04/05 02:59:39;;;;;;;30.70;12.70;;;-2.70;99.90;;;;;;5067039;28;20090;-62
2023/04/05 03:02:05;;;;;;;34.70;12.85;;;-2.70;99.90;;;;;;5056183;28;20052;-62
2023/04/05 03:04:33;;;;;;;35.75;13.77;;;-2.80;99.90;;;;;;5063880;28;20035;-66
2023/04/05 03:07:03;;;;;;;32.47;12.60;;;-2.80;99.90;;;;;;5048558;28;20094;-64
2023/04/05 03:09:32;;;;;;;34.30;13.20;;;-2.70;99.90;;;;;;5038952;28;20029;-65
2023/04/05 03:12:02;;;;;;;39.47;13.90;;;-2.80;99.90;;;;;;5068056;28;20114;-62
2023/04/05 03:14:29;;;;;;;38.65;14.57;;;-2.80;99.90;;;;;;5068895;28;20068;-62
2023/04/05 03:16:55;;;;;;;39.47;14.00;;;-2.80;99.90;;;;;;5068032;28;20028;-66
2023/04/05 03:19:21;;;;;;;34.92;13.02;;;-2.90;99.90;;;;;;5050900;28;20385;-62
2023/04/05 03:21:48;;;;;;;30.88;12.05;;;-2.90;99.90;;;;;;5068739;28;20036;-63
2023/04/05 03:24:14;;;;;;;33.03;12.00;;;-2.90;99.90;;;;;;5065276;28;20024;-62
2023/04/05 03:26:42;;;;;;;34.83;12.25;;;-2.90;99.90;;;;;;5068570;28;20468;-62
2023/04/05 03:29:08;;;;;;;36.90;12.77;;;-2.90;99.90;;;;;;5067868;28;20034;-63
2023/04/05 03:31:33;;;;;;;37.97;13.25;;;-2.90;99.90;;;;;;5068544;28;20024;-63
2023/04/05 03:33:59;;;;;;;37.55;12.95;;;-2.90;99.90;;;;;;5067934;28;20033;-63
2023/04/05 03:36:27;;;;;;;38.78;12.93;;;-2.90;99.90;;;;;;5068627;28;20028;-62
2023/04/05 03:38:54;;;;;;;33.63;14.55;;;-2.80;99.90;;;;;;5066470;28;20048;-69
2023/04/05 03:41:20;;;;;;;34.75;12.90;;;-2.90;99.90;;;;;;5068400;28;20032;-62
2023/04/05 03:43:47;;;;;;;37.85;13.77;;;-2.90;99.90;;;;;;5068131;28;20029;-63
2023/04/05 03:46:13;;;;;;;35.60;13.75;;;-2.90;99.90;;;;;;5066891;28;20044;-62
2023/04/05 03:48:39;;;;;;;45.30;14.15;;;-2.90;99.90;;;;;;5068472;28;20444;-65
2023/04/05 03:51:05;;;;;;;33.60;13.05;;;-2.90;99.90;;;;;;5067455;28;20040;-63
2023/04/05 03:53:31;;;;;;;28.50;11.82;;;-3.00;99.90;;;;;;5066432;28;20049;-63
2023/04/05 03:55:57;;;;;;;40.55;13.45;;;-3.10;99.90;;;;;;5067855;28;20040;-68
2023/04/05 03:58:24;;;;;;;38.33;13.95;;;-3.10;99.90;;;;;;5050208;28;20024;-64
2023/04/05 04:00:51;;;;;;;40.80;14.65;;;-3.10;99.90;;;;;;5068342;28;20423;-63
2023/04/05 04:03:17;;;;;;;37.45;14.63;;;-3.20;99.90;;;;;;5049735;28;20032;-63
2023/04/05 04:05:43;;;;;;;38.92;15.65;;;-3.20;99.90;;;;;;5068101;28;20366;-63
2023/04/05 04:08:09;;;;;;;40.33;13.90;;;-3.20;99.90;;;;;;5066327;28;20464;-64
2023/04/05 04:10:35;;;;;;;41.30;13.85;;;-3.20;99.90;;;;;;5066564;28;20064;-63
2023/04/05 04:13:01;;;;;;;35.40;13.48;;;-3.20;99.90;;;;;;5049451;28;20131;-63
2023/04/05 04:15:26;;;;;;;36.35;13.40;;;-3.20;99.90;;;;;;5067826;28;20635;-63
2023/04/05 04:17:52;;;;;;;31.38;12.82;;;-3.20;99.90;;;;;;5066498;28;20160;-64
2023/04/05 04:20:18;;;;;;;29.30;11.30;;;-3.20;99.90;;;;;;5065133;28;20032;-63
2023/04/05 04:22:44;;;;;;;24.65;9.93;;;-3.20;99.90;;;;;;5058992;28;20060;-62
2023/04/05 04:25:11;;;;;;;27.70;10.70;;;-3.30;99.90;;;;;;5057655;28;21700;-63
2023/04/05 04:27:42;;;;;;;27.33;10.70;;;-3.30;99.90;;;;;;5065147;28;20036;-65
2023/04/05 04:30:13;;;;;;;27.27;10.45;;;-3.20;99.90;;;;;;5061905;28;20055;-66
2023/04/05 04:32:52;;;;;;;24.20;10.50;;;-3.30;99.90;;;;;;5061124;28;20029;-64
2023/04/05 04:35:26;;;;;;;26.48;11.30;;;-3.30;99.90;;;;;;5053856;28;20029;-63
2023/04/05 04:37:57;;;;;;;25.52;10.23;;;-3.40;99.90;;;;;;5051358;28;20032;-64
2023/04/05 04:40:46;;;;;;;22.75;9.52;;;-3.40;99.90;;;;;;5061471;28;20032;-64
2023/04/05 04:43:18;;;;;;;26.35;10.75;;;-3.40;99.90;;;;;;5061771;28;20037;-63
2023/04/05 04:45:48;;;;;;;22.60;9.80;;;-3.50;99.90;;;;;;5066356;28;20032;-64
2023/04/05 04:48:15;;;;;;;;;;;-3.50;99.90;;;;;;5067023;28;20033;-63
2023/04/05 04:50:42;;;;;;;22.90;9.80;;;-3.40;99.90;;;;;;5066125;28;20326;-62
2023/04/05 04:53:08;;;;;;;23.00;9.85;;;-3.40;99.90;;;;;;5061587;28;20059;-63
2023/04/05 04:55:35;;;;;;;24.88;10.23;;;-3.40;99.90;;;;;;5064253;28;20040;-62
2023/04/05 04:58:08;;;;;;;23.35;9.85;;;-3.40;99.90;;;;;;5070641;28;20051;-69
2023/04/05 05:00:34;;;;;;;26.75;10.25;;;-3.40;99.90;;;;;;5071575;28;20036;-64
2023/04/05 05:03:00;;;;;;;24.38;10.27;;;-3.40;99.90;;;;;;5070608;28;20460;-67
2023/04/05 05:05:26;;;;;;;21.98;9.27;;;-3.40;99.90;;;;;;5071406;28;20028;-62
2023/04/05 05:07:52;;;;;;;24.38;10.07;;;-3.50;99.90;;;;;;5071359;28;20464;-64
2023/04/05 05:10:18;;;;;;;28.58;11.25;;;-3.40;99.90;;;;;;5069540;28;20103;-63
2023/04/05 05:12:44;;;;;;;24.08;9.77;;;-3.40;99.90;;;;;;5071284;28;20032;-63
2023/04/05 05:15:11;;;;;;;28.77;10.45;;;-3.40;99.90;;;;;;5070251;28;20085;-62
2023/04/05 05:17:38;;;;;;;24.77;10.55;;;-3.40;99.90;;;;;;5058710;28;20636;-63
2023/04/05 05:20:05;;;;;;;26.80;10.93;;;-3.40;99.90;;;;;;5064072;28;20064;-63
2023/04/05 05:22:31;;;;;;;26.50;9.80;;;-3.30;99.90;;;;;;5067105;28;20024;-62
2023/04/05 05:24:57;;;;;;;25.65;10.45;;;-3.20;99.90;;;;;;5069547;28;20793;-64
2023/04/05 05:27:22;;;;;;;25.52;10.55;;;-3.10;99.90;;;;;;5067440;28;20074;-64
2023/04/05 05:29:48;;;;;;;37.00;12.65;;;-3.00;99.90;;;;;;5066495;28;20070;-62
2023/04/05 05:32:15;;;;;;;35.60;12.38;;;-2.90;99.90;;;;;;5065861;28;20044;-64
2023/04/05 05:34:43;;;;;;;32.78;12.05;;;-2.80;99.90;;;;;;5050284;28;20169;-62
2023/04/05 05:37:11;;;;;;;29.60;12.05;;;-2.70;99.90;;;;;;5068869;28;20039;-63
2023/04/05 05:39:37;;;;;;;34.22;13.00;;;-2.60;99.90;;;;;;5068901;28;20116;-65
2023/04/05 05:42:03;;;;;;;35.60;13.45;;;-2.60;99.90;;;;;;5050574;28;20036;-69
2023/04/05 05:44:29;;;;;;;34.80;12.95;;;-2.50;99.90;;;;;;5068809;28;20127;-65
2023/04/05 05:46:55;;;;;;;30.73;12.60;;;-2.60;99.90;;;;;;5070625;28;20028;-63
2023/04/05 05:49:22;;;;;;;37.95;14.52;;;-2.50;99.90;;;;;;5067713;28;20033;-63
2023/04/05 05:51:48;;;;;;;37.25;14.15;;;-2.50;99.90;;;;;;5061270;28;20086;-63
2023/04/05 05:54:14;;;;;;;32.60;13.35;;;-2.50;99.90;;;;;;5056359;28;20056;-64
2023/04/05 05:56:40;;;;;;;39.75;13.38;;;-2.40;99.90;;;;;;5070530;28;20025;-63
2023/04/05 05:59:06;;;;;;;34.13;13.23;;;-2.40;99.90;;;;;;5050484;28;20031;-63
2023/04/05 06:01:33;;;;;;;32.70;13.02;;;-2.40;99.90;;;;;;5068952;28;20530;-70
2023/04/05 06:03:59;;;;;;;33.90;13.80;;;-2.30;99.90;;;;;;5065330;28;20036;-66
2023/04/05 06:06:25;;;;;;;40.55;13.95;;;-2.10;99.90;;;;;;5049778;28;20549;-62
2023/04/05 06:08:51;;;;;;;31.20;13.32;;;-2.00;99.90;;;;;;5050802;28;20056;-62
2023/04/05 06:11:18;;;;;;;28.10;10.60;;;-1.80;99.90;;;;;;5031172;28;20041;-64
2023/04/05 06:13:44;;;;;;;34.33;12.13;;;-1.70;99.90;;;;;;5059263;28;20029;-62
2023/04/05 06:16:10;;;;;;;32.05;12.38;;;-1.60;99.90;;;;;;5060949;28;20032;-62
2023/04/05 06:18:36;;;;;;;30.92;11.77;;;-1.60;99.90;;;;;;5068464;28;20068;-62
2023/04/05 06:21:01;;;;;;;34.28;13.05;;;-1.50;99.90;;;;;;5069698;28;20040;-69
2023/04/05 06:23:27;;;;;;;37.60;12.57;;;-1.50;99.90;;;;;;5059257;28;20499;-63
2023/04/05 06:25:53;;;;;;;32.70;12.02;;;-1.40;99.90;;;;;;5067814;28;20059;-63
2023/04/05 06:28:18;;;;;;;26.67;11.45;;;-1.20;99.90;;;;;;5069251;28;20029;-67
2023/04/05 06:30:44;;;;;;;30.95;12.23;;;-1.10;99.90;;;;;;5061122;28;20362;-62
2023/04/05 06:33:10;;;;;;;38.38;19.67;;;-1.00;99.90;;;;;;5034787;28;20033;-63
2023/04/05 06:35:35;;;;;;;33.72;14.23;;;-0.80;99.90;;;;;;5049431;28;20029;-62
2023/04/05 06:38:01;;;;;;;26.92;12.40;;;-0.60;99.90;;;;;;5059035;28;20033;-63
2023/04/05 06:40:27;;;;;;;27.45;12.18;;;-0.50;99.90;;;;;;5015203;28;20523;-63
2023/04/05 06:42:53;;;;;;;22.48;10.35;;;-0.30;99.90;;;;;;5050387;28;20032;-64
2023/04/05 06:45:19;;;;;;;26.73;10.48;;;-0.10;99.90;;;;;;5048546;28;20469;-65
2023/04/05 06:47:45;;;;;;;24.55;10.90;;;0.10;99.90;;;;;;5056688;28;20052;-62
2023/04/05 06:50:11;;;;;;;22.98;10.88;;;0.20;99.90;;;;;;5066616;28;20087;-62
2023/04/05 06:52:36;;;;;;;24.58;10.88;;;0.40;99.90;;;;;;5067238;28;20052;-62
2023/04/05 06:55:03;;;;;;;19.98;10.15;;;0.50;99.90;;;;;;5068637;28;20475;-64
2023/04/05 06:57:29;;;;;;;48.70;23.73;;;0.80;99.90;;;;;;5063954;28;20031;-63
2023/04/05 06:59:55;;;;;;;24.92;12.10;;;0.90;99.90;;;;;;5061235;28;20028;-62
2023/04/05 07:02:21;;;;;;;23.00;10.90;;;1.00;99.90;;;;;;5048475;28;20036;-61
2023/04/05 07:04:47;;;;;;;21.75;9.50;;;1.10;99.90;;;;;;5062155;28;20465;-61
2023/04/05 07:07:15;;;;;;;23.75;10.43;;;1.20;99.90;;;;;;5066259;28;20111;-63
2023/04/05 07:09:41;;;;;;;25.20;10.18;;;1.30;99.90;;;;;;5068886;28;20032;-61
2023/04/05 07:12:07;;;;;;;25.02;10.30;;;1.50;99.90;;;;;;5049601;28;20481;-67
2023/04/05 07:14:35;;;;;;;23.42;8.63;;;1.60;99.90;;;;;;5068989;28;20057;-62
2023/04/05 07:17:01;;;;;;;18.65;8.88;;;1.80;99.90;;;;;;5057916;28;20029;-62
2023/04/05 07:19:27;;;;;;;21.90;9.68;;;1.90;99.90;;;;;;5049311;28;20029;-63
2023/04/05 07:21:54;;;;;;;22.20;9.50;;;1.90;99.90;;;;;;5065597;28;20082;-62
2023/04/05 07:24:20;;;;;;;18.23;9.38;;;1.90;99.90;;;;;;5060804;28;20116;-62
2023/04/05 07:26:45;;;;;;;21.02;8.93;;;2.00;99.90;;;;;;5052738;28;20170;-61
2023/04/05 07:29:11;;;;;;;19.13;8.45;;;2.10;99.90;;;;;;5061853;28;20028;-61
2023/04/05 07:31:38;;;;;;;21.15;10.05;;;2.20;99.90;;;;;;5056003;28;20072;-63
2023/04/05 07:34:04;;;;;;;21.38;9.43;;;2.30;99.90;;;;;;5065690;28;20036;-62
2023/04/05 07:36:30;;;;;;;20.10;8.48;;;2.50;99.90;;;;;;5058451;28;20028;-62
2023/04/05 07:38:56;;;;;;;18.75;8.90;;;2.60;99.90;;;;;;5066883;28;20035;-61
2023/04/05 07:41:24;;;;;;;22.88;10.05;;;2.80;99.90;;;;;;5062096;28;20036;-61
2023/04/05 07:43:50;;;;;;;20.58;9.48;;;3.00;99.90;;;;;;5068512;28;20021;-62
2023/04/05 07:46:16;;;;;;;48.38;16.25;;;3.10;99.90;;;;;;5062236;28;20078;-61
2023/04/05 07:48:42;;;;;;;22.05;10.55;;;3.00;99.90;;;;;;5048499;28;20041;-63
2023/04/05 07:51:08;;;;;;;22.35;9.75;;;3.10;99.90;;;;;;5030265;28;20068;-67
2023/04/05 07:53:35;;;;;;;22.52;9.65;;;3.20;99.90;;;;;;5057214;28;20050;-62
2023/04/05 07:56:11;;;;;;;17.95;8.77;;;3.30;99.90;;;;;;5063901;28;20032;-61
2023/04/05 07:58:40;;;;;;;20.38;8.20;;;3.40;99.90;;;;;;5067671;28;20685;-61
2023/04/05 08:01:06;;;;;;;22.83;8.93;;;3.60;99.90;;;;;;5065026;28;20028;-61
2023/04/05 08:03:34;;;;;;;20.52;9.18;;;3.70;99.90;;;;;;5065492;28;20105;-62
2023/04/05 08:06:16;;;;;;;16.92;8.18;;;3.80;99.90;;;;;;5054037;28;20037;-62
2023/04/05 08:08:42;;;;;;;17.02;8.13;;;4.10;99.90;;;;;;5064028;28;20036;-62
2023/04/05 08:11:08;;;;;;;16.80;8.52;;;4.20;99.90;;;;;;5060443;28;20040;-67
2023/04/05 08:13:35;;;;;;;18.63;7.78;;;4.40;99.90;;;;;;5067274;28;20071;-63
2023/04/05 08:16:01;;;;;;;14.75;6.57;;;4.40;99.90;;;;;;5066125;28;20059;-61
2023/04/05 08:18:27;;;;;;;17.33;7.25;;;4.60;99.90;;;;;;5067462;28;20064;-63
2023/04/05 08:20:54;;;;;;;18.33;8.07;;;4.60;99.90;;;;;;5068169;28;20033;-62
2023/04/05 08:23:20;;;;;;;15.18;7.45;;;4.90;99.90;;;;;;5066191;28;20105;-62
2023/04/05 08:25:46;;;;;;;16.30;6.68;;;5.00;99.90;;;;;;5068149;28;20453;-61
2023/04/05 08:28:11;;;;;;;14.23;6.90;;;5.10;99.90;;;;;;5067655;28;20037;-67
2023/04/05 08:30:38;;;;;;;12.85;6.28;;;5.10;99.90;;;;;;5067254;28;20048;-63
2023/04/05 08:33:04;;;;;;;13.10;6.22;;;5.20;99.80;;;;;;5066061;28;20032;-62
2023/04/05 08:35:30;;;;;;;18.10;7.53;;;5.20;96.60;;;;;;5068081;28;20021;-65
2023/04/05 08:37:56;;;;;;;11.18;6.25;;;5.30;96.20;;;;;;5069314;28;20035;-62
2023/04/05 08:40:32;;;;;;;10.98;6.20;;;5.30;95.90;;;;;;5066265;28;20064;-63
2023/04/05 08:43:09;;;;;;;13.23;6.72;;;5.30;94.30;;;;;;5060243;28;20031;-64
2023/04/05 08:45:57;;;;;;;15.05;6.40;;;5.40;94.20;;;;;;5068268;28;20047;-62
2023/04/05 08:48:23;;;;;;;15.77;6.60;;;5.50;94.40;;;;;;5050886;28;20420;-65
2023/04/05 08:50:53;;;;;;;14.02;6.80;;;5.50;93.90;;;;;;5066238;28;20045;-62
2023/04/05 08:53:20;;;;;;;14.98;6.65;;;5.40;93.40;;;;;;5041443;28;20504;-62
2023/04/05 08:55:52;;;;;;;12.77;6.32;;;5.50;95.30;;;;;;5071007;28;20029;-62
2023/04/05 08:58:23;;;;;;;15.13;6.05;;;5.60;92.40;;;;;;5060462;28;20576;-61
2023/04/05 09:00:52;;;;;;;14.55;6.32;;;5.70;91.60;;;;;;5068875;28;20063;-65
2023/04/05 09:03:21;;;;;;;13.65;6.68;;;5.70;92.40;;;;;;5068424;28;20426;-62
2023/04/05 09:05:51;;;;;;;12.80;6.20;;;5.80;91.10;;;;;;5069402;28;20036;-64
2023/04/05 09:08:20;;;;;;;14.25;7.00;;;5.90;92.40;;;;;;5069872;28;20540;-62
2023/04/05 09:10:47;;;;;;;11.57;6.72;;;5.90;93.10;;;;;;5051256;28;20043;-60
2023/04/05 09:13:13;;;;;;;13.05;6.25;;;6.00;93.70;;;;;;5061912;28;20021;-67
2023/04/05 09:15:40;;;;;;;18.63;7.75;;;6.00;93.70;;;;;;5063579;28;20358;-63
2023/04/05 09:18:05;;;;;;;17.35;7.32;;;6.40;93.70;;;;;;5069525;28;20498;-60
2023/04/05 09:20:31;;;;;;;13.77;7.18;;;6.60;92.30;;;;;;5065570;28;20082;-60
2023/04/05 09:22:57;;;;;;;15.02;7.22;;;6.70;92.50;;;;;;5064765;28;20071;-63
2023/04/05 09:25:33;;;;;;;12.73;7.07;;;6.60;91.90;;;;;;5060942;28;20400;-63
2023/04/05 09:27:59;;;;;;;14.18;6.90;;;6.90;92.30;;;;;;5070700;28;20601;-62
2023/04/05 09:30:29;;;;;;;17.05;7.25;;;6.80;90.60;;;;;;5070087;28;20025;-61
2023/04/05 09:32:55;;;;;;;16.83;7.80;;;6.60;91.30;;;;;;5070682;28;20067;-62
2023/04/05 09:35:29;;;;;;;13.07;7.05;;;6.40;90.40;;;;;;5043764;28;20299;-61
2023/04/05 09:38:00;;;;;;;17.85;7.40;;;6.70;91.90;;;;;;5050877;28;20116;-60
2023/04/05 09:40:42;;;;;;;;;;;6.80;93.70;;;;;;5050461;28;20129;-60
2023/04/05 09:43:12;;;;;;;15.10;7.15;;;7.00;91.30;;;;;;5049421;28;19955;-61
2023/04/05 09:45:44;;;;;;;15.80;7.07;;;7.00;90.10;;;;;;5050436;28;20040;-61
2023/04/05 09:48:09;;;;;;;15.55;6.90;;;7.20;90.80;;;;;;5050704;28;20029;-60
2023/04/05 09:50:35;;;;;;;13.88;7.07;;;7.40;90.90;;;;;;5060430;28;20526;-60
2023/04/05 09:53:14;;;;;;;13.82;7.90;;;6.90;87.90;;;;;;5069564;28;20056;-60
2023/04/05 09:55:41;;;;;;;16.60;7.47;;;6.40;89.20;;;;;;5069867;28;20040;-62
2023/04/05 09:58:19;;;;;;;17.13;8.75;;;6.10;89.60;;;;;;5070452;28;20087;-62
2023/04/05 10:00:52;;;;;;;14.77;7.78;;;6.00;92.50;;;;;;5070440;28;20039;-60
2023/04/05 10:03:19;;;;;;;15.88;7.30;;;6.20;89.20;;;;;;5069628;28;20029;-67
2023/04/05 10:05:46;;;;;;;15.82;7.47;;;6.60;92.20;;;;;;5060210;28;20036;-61
2023/04/05 10:08:14;;;;;;;15.88;8.13;;;7.20;90.50;;;;;;5055436;28;20037;-61
2023/04/05 10:10:45;;;;;;;14.30;7.20;;;7.60;90.50;;;;;;5061051;28;20032;-60
2023/04/05 10:13:13;;;;;;;16.08;7.82;;;7.60;86.10;;;;;;5038995;28;20059;-60
2023/04/05 10:15:41;;;;;;;15.50;7.28;;;7.80;90.00;;;;;;5074717;28;20027;-62
2023/04/05 10:18:15;;;;;;;14.10;7.82;;;7.90;87.50;;;;;;5068259;28;20036;-61
2023/04/05 10:20:46;;;;;;;13.85;7.30;;;8.00;84.60;;;;;;5053279;28;20039;-61
2023/04/05 10:23:33;;;;;;;14.88;7.28;;;8.10;87.40;;;;;;5049671;28;20144;-60
2023/04/05 10:26:49;;;;;;;16.35;7.68;;;8.20;84.10;;;;;;5063507;28;20124;-62
2023/04/05 10:29:24;;;;;;;13.30;7.80;;;8.10;87.80;;;;;;5057689;28;20033;-60
2023/04/05 10:32:03;;;;;;;14.20;7.88;;;8.40;87.60;;;;;;5050305;28;20048;-61
2023/04/05 10:35:08;;;;;;;14.18;7.63;;;8.50;89.00;;;;;;5067606;28;20017;-64
2023/04/05 10:38:07;;;;;;;15.65;7.60;;;8.70;82.80;;;;;;4966311;28;20537;-60
2023/04/05 10:40:34;;;;;;;16.83;7.65;;;8.60;80.60;;;;;;5048935;28;20075;-63
2023/04/05 10:43:01;;;;;;;12.32;6.60;;;8.60;82.70;;;;;;5049638;28;20025;-62
2023/04/05 10:45:27;;;;;;;16.33;8.23;;;8.60;80.10;;;;;;5054679;28;20469;-62
2023/04/05 10:48:13;;;;;;;13.68;7.47;;;8.60;86.70;;;;;;5051551;28;20036;-60
2023/04/05 10:50:39;;;;;;;16.10;8.15;;;8.80;87.00;;;;;;5067994;28;20037;-62
2023/04/05 10:53:06;;;;;;;17.60;7.90;;;9.00;84.20;;;;;;5068894;28;20072;-60
2023/04/05 10:55:34;;;;;;;14.18;7.30;;;9.10;88.10;;;;;;5050277;28;20117;-62
2023/04/05 10:58:00;;;;;;;12.88;7.63;;;9.10;82.30;;;;;;5069515;28;20054;-60
2023/04/05 11:00:26;;;;;;;15.60;7.38;;;9.20;78.40;;;;;;5067581;28;20025;-61
2023/04/05 11:02:57;;;;;;;14.18;7.22;;;9.20;80.10;;;;;;5069209;28;20028;-60
2023/04/05 11:05:31;;;;;;;14.35;7.20;;;8.90;75.40;;;;;;5066532;28;20040;-62
2023/04/05 11:08:02;;;;;;;12.15;6.78;;;8.80;75.30;;;;;;5069151;28;20032;-63
2023/04/05 11:10:28;;;;;;;13.02;7.70;;;8.70;75.50;;;;;;5068342;28;20017;-60
2023/04/05 11:12:54;;;;;;;13.80;7.35;;;8.70;75.60;;;;;;5069172;28;20461;-61
2023/04/05 11:15:29;;;;;;;12.40;7.18;;;8.70;78.80;;;;;;5068520;28;20029;-67
2023/04/05 11:18:10;;;;;;;13.23;6.53;;;9.20;77.20;;;;;;5068087;28;20033;-61
2023/04/05 11:21:06;;;;;;;12.60;7.07;;;9.00;72.10;;;;;;5055773;28;20039;-60
2023/04/05 11:23:31;;;;;;;13.43;7.03;;;9.10;71.10;;;;;;5067092;28;20028;-60
2023/04/05 11:26:05;;;;;;;14.57;7.07;;;9.50;75.60;;;;;;5055007;28;20124;-62
2023/04/05 11:28:38;;;;;;;13.75;7.38;;;9.70;81.40;;;;;;5047769;28;20025;-60
2023/04/05 11:31:17;;;;;;;14.20;7.20;;;9.50;78.60;;;;;;5062712;28;20076;-61
2023/04/05 11:34:08;;;;;;;14.02;6.82;;;9.80;78.10;;;;;;5047202;28;20047;-62
2023/04/05 11:36:34;;;;;;;12.38;6.82;;;10.20;75.00;;;;;;5062934;28;20376;-62
2023/04/05 11:39:19;;;;;;;11.85;6.57;;;10.10;68.90;;;;;;5068036;28;20029;-62
2023/04/05 11:41:59;;;;;;;15.57;7.32;;;9.90;72.70;;;;;;5048643;28;20043;-61
2023/04/05 11:44:25;;;;;;;15.10;7.15;;;10.10;68.80;;;;;;5052961;28;20024;-62
2023/04/05 11:46:52;;;;;;;14.07;7.00;;;10.20;66.60;;;;;;5057759;28;20036;-65
2023/04/05 11:49:21;;;;;;;11.35;6.45;;;10.10;64.10;;;;;;5061049;28;20473;-64
2023/04/05 11:51:49;;;;;;;13.45;6.38;;;10.40;76.10;;;;;;5039688;28;20048;-62
2023/04/05 11:54:27;;;;;;;12.95;7.50;;;10.40;72.80;;;;;;5057555;28;20068;-61
2023/04/05 11:56:53;;;;;;;12.02;7.05;;;10.30;65.60;;;;;;5039266;28;20063;-60
2023/04/05 11:59:18;;;;;;;11.68;7.07;;;10.10;68.50;;;;;;5049242;28;20473;-62
2023/04/05 12:01:44;;;;;;;14.43;6.97;;;10.20;66.30;;;;;;5048082;28;20044;-62
2023/04/05 12:04:13;;;;;;;16.27;8.30;;;10.10;68.10;;;;;;5060205;28;20103;-61
2023/04/05 12:06:38;;;;;;;12.23;7.18;;;10.30;69.30;;;;;;5064102;28;20029;-62
2023/04/05 12:09:06;;;;;;;14.73;7.10;;;9.90;65.20;;;;;;5068401;28;20036;-60
2023/04/05 12:11:32;;;;;;;14.02;7.20;;;9.90;67.00;;;;;;5049248;28;20050;-62
2023/04/05 12:14:01;;;;;;;12.40;6.88;;;9.80;69.50;;;;;;5055795;28;20028;-61
2023/04/05 12:16:27;;;;;;;15.38;7.28;;;9.70;70.30;;;;;;5067340;28;20060;-62
2023/04/05 12:18:58;;;;;;;12.52;7.32;;;9.60;63.80;;;;;;5068247;28;20070;-61
2023/04/05 12:21:25;;;;;;;12.77;7.40;;;9.90;68.30;;;;;;5066270;28;20040;-66
2023/04/05 12:23:51;;;;;;;12.13;6.70;;;10.20;69.80;;;;;;5067963;28;20119;-61
2023/04/05 12:26:17;;;;;;;13.18;7.10;;;10.40;68.90;;;;;;5068159;28;20431;-63
2023/04/05 12:28:59;;;;;;;13.18;7.53;;;10.60;73.30;;;;;;5067295;28;20024;-61
2023/04/05 12:31:44;;;;;;;12.45;7.30;;;10.40;66.50;;;;;;5067694;28;20495;-66
2023/04/05 12:34:11;;;;;;;12.73;6.82;;;10.40;64.90;;;;;;5049289;28;20032;-61
2023/04/05 12:36:38;;;;;;;15.32;7.43;;;10.70;67.10;;;;;;5066846;28;20036;-61
2023/04/05 12:39:08;;;;;;;21.20;7.30;;;10.90;63.40;;;;;;5068061;28;20092;-61
2023/04/05 12:41:34;;;;;;;13.27;7.28;;;10.70;68.30;;;;;;5067263;28;20043;-61
2023/04/05 12:44:36;;;;;;;17.05;8.40;;;11.10;67.90;;;;;;5067970;28;20387;-61